Time;durP1;ratioP1;P1;durP2;ratioP2;P2;SDS_P1;SDS_P2;PMS_P1;PMS_P2;Temp;Humidity;BMP_temperature;BMP_pressure;BME280_temperature;BME280_humidity;BME280_pressure;Samples;Min_cycle;Max_cycle;Signal;HPM_P1;HPM_P2
2022/08/30 00:02:53;;;;;;;6.05;4.53;;;;;;;20.22;58.61;93086.13;2062212;69;20256;-76
2022/08/30 00:05:19;;;;;;;8.82;5.35;;;;;;;20.20;58.74;93085.31;2067790;69;20609;-76
2022/08/30 00:07:44;;;;;;;6.78;4.70;;;;;;;20.18;57.92;93082.41;2067736;69;20240;-76
2022/08/30 00:10:11;;;;;;;9.07;4.80;;;;;;;20.17;58.71;93086.69;2069887;69;20147;-75
2022/08/30 00:12:38;;;;;;;7.55;4.80;;;;;;;20.08;57.81;93097.13;2071807;69;20169;-77
2022/08/30 00:15:05;;;;;;;6.70;4.30;;;;;;;19.97;59.35;93083.91;2071965;69;20249;-77
2022/08/30 00:17:32;;;;;;;7.70;4.88;;;;;;;20.01;58.57;93092.59;2072171;69;20586;-77
2022/08/30 00:19:58;;;;;;;7.68;4.80;;;;;;;19.74;60.27;93083.16;2071928;69;20151;-77
2022/08/30 00:22:24;;;;;;;9.10;4.20;;;;;;;19.66;60.70;93090.75;2068399;69;20495;-77
2022/08/30 00:24:49;;;;;;;9.85;4.80;;;;;;;19.91;59.24;93087.28;2068542;69;20152;-77
2022/08/30 00:27:15;;;;;;;7.57;4.90;;;;;;;19.86;59.78;93084.97;2065733;69;20167;-77
2022/08/30 00:29:41;;;;;;;7.55;4.55;;;;;;;19.16;62.37;93096.88;2071704;69;20538;-77
2022/08/30 00:32:07;;;;;;;6.50;4.80;;;;;;;19.68;59.85;93085.09;2071647;69;20250;-77
2022/08/30 00:34:33;;;;;;;8.30;5.20;;;;;;;19.52;60.55;93088.84;2071479;69;20581;-77
2022/08/30 00:36:59;;;;;;;8.93;5.03;;;;;;;19.63;59.59;93084.25;2071479;69;20171;-77
2022/08/30 00:39:25;;;;;;;12.68;4.70;;;;;;;19.62;59.72;93082.78;2071452;69;20220;-77
2022/08/30 00:41:51;;;;;;;8.13;4.57;;;;;;;19.63;59.21;93086.38;2071367;69;20140;-77
2022/08/30 00:44:26;;;;;;;7.47;5.25;;;;;;;19.48;60.70;93083.00;2071371;69;20273;-77
2022/08/30 00:46:53;;;;;;;9.15;5.32;;;;;;;19.51;60.75;93073.09;2071030;69;20156;-77
2022/08/30 00:49:19;;;;;;;10.45;5.20;;;;;;;19.51;60.38;93090.22;2069614;69;20183;-77
2022/08/30 00:51:46;;;;;;;7.68;4.70;;;;;;;19.54;59.81;93079.63;2070550;69;20160;-77
2022/08/30 00:54:13;;;;;;;5.68;4.47;;;;;;;19.45;60.95;93086.44;2070813;69;20180;-77
2022/08/30 00:56:40;;;;;;;7.03;4.55;;;;;;;19.47;60.42;93087.25;2070999;69;20148;-76
2022/08/30 00:59:08;;;;;;;7.05;5.00;;;;;;;19.43;60.40;93080.69;2064492;69;20318;-77
2022/08/30 01:01:36;;;;;;;7.93;4.95;;;;;;;19.38;60.76;93079.06;2067829;69;20166;-76
2022/08/30 01:04:05;;;;;;;7.03;4.90;;;;;;;19.37;60.84;93084.03;2068316;69;20171;-77
2022/08/30 01:06:33;;;;;;;11.23;5.28;;;;;;;19.23;60.94;93078.56;2065569;69;20155;-77
2022/08/30 01:09:00;;;;;;;7.43;4.78;;;;;;;19.06;62.16;93085.13;2071090;69;20186;-77
2022/08/30 01:11:26;;;;;;;7.05;4.97;;;;;;;19.21;61.25;93084.22;2068043;69;20176;-78
2022/08/30 01:13:54;;;;;;;7.50;4.90;;;;;;;18.94;62.01;93084.69;2068146;69;20259;-76
2022/08/30 01:16:24;;;;;;;10.98;5.05;;;;;;;19.10;61.72;93081.66;2068060;69;20226;-76
2022/08/30 01:18:53;;;;;;;6.28;4.38;;;;;;;19.21;59.75;93078.53;2067846;69;20897;-76
2022/08/30 01:21:32;;;;;;;9.05;5.53;;;;;;;19.12;61.65;93073.19;2065124;69;20567;-77
2022/08/30 01:24:00;;;;;;;7.72;5.00;;;;;;;19.10;60.33;93081.66;2071550;69;20128;-75
2022/08/30 01:26:28;;;;;;;10.52;4.88;;;;;;;19.06;61.06;93073.72;2071215;69;20163;-76
2022/08/30 01:28:58;;;;;;;7.65;5.28;;;;;;;18.99;60.95;93066.31;2071482;69;20152;-77
2022/08/30 01:31:26;;;;;;;7.85;5.10;;;;;;;19.13;60.82;93063.22;2071430;69;20206;-78
2022/08/30 01:33:51;;;;;;;10.02;4.95;;;;;;;19.00;61.09;93073.47;2071768;69;20224;-78
2022/08/30 01:36:18;;;;;;;6.53;4.85;;;;;;;19.03;60.86;93070.03;2071343;69;20143;-78
2022/08/30 01:38:53;;;;;;;6.65;4.78;;;;;;;18.94;62.14;93068.28;2071605;69;20188;-79
2022/08/30 01:41:33;;;;;;;7.60;4.72;;;;;;;18.89;61.64;93075.25;2071789;69;20152;-78
2022/08/30 01:44:03;;;;;;;7.20;4.90;;;;;;;18.88;61.99;93070.94;2075206;69;20159;-78
2022/08/30 01:46:34;;;;;;;7.18;5.00;;;;;;;18.80;62.55;93082.06;2076750;69;20210;-75
2022/08/30 01:49:02;;;;;;;8.20;4.93;;;;;;;18.82;62.13;93075.69;2076571;69;20144;-74
2022/08/30 01:51:28;;;;;;;8.07;4.88;;;;;;;18.89;61.38;93080.94;2076626;69;20499;-75
2022/08/30 01:53:55;;;;;;;6.75;4.97;;;;;;;18.67;63.82;93066.59;2075498;69;20145;-76
2022/08/30 01:56:23;;;;;;;7.53;5.00;;;;;;;18.74;62.30;93076.88;2073068;69;20179;-78
2022/08/30 01:58:49;;;;;;;7.70;5.07;;;;;;;18.60;63.13;93081.25;2069062;69;20484;-76
2022/08/30 02:01:18;;;;;;;9.80;4.60;;;;;;;18.75;60.57;93081.16;2072727;69;20136;-77
2022/08/30 02:03:45;;;;;;;8.23;5.55;;;;;;;18.76;61.67;93084.75;2072960;69;20141;-77
2022/08/30 02:06:17;;;;;;;8.60;6.35;;;;;;;18.68;61.96;93088.00;2072368;69;20144;-77
2022/08/30 02:08:44;;;;;;;7.87;6.53;;;;;;;18.70;61.81;93085.28;2071967;69;20163;-77
2022/08/30 02:11:11;;;;;;;10.65;6.30;;;;;;;18.25;64.15;93083.56;2071576;69;20152;-76
2022/08/30 02:13:38;;;;;;;9.68;5.15;;;;;;;18.65;61.88;93088.59;2068433;69;20164;-77
2022/08/30 02:16:10;;;;;;;7.45;5.78;;;;;;;18.67;61.51;93085.81;2071712;69;20264;-77
2022/08/30 02:18:38;;;;;;;9.85;6.60;;;;;;;18.63;61.72;93077.84;2071893;69;20228;-77
2022/08/30 02:21:08;;;;;;;13.90;5.68;;;;;;;18.50;61.60;93095.88;2071568;69;20148;-76
2022/08/30 02:23:35;;;;;;;8.25;5.65;;;;;;;18.48;62.60;93095.81;2071602;69;20148;-77
2022/08/30 02:26:00;;;;;;;7.13;5.82;;;;;;;18.41;62.77;93094.84;2068349;69;20214;-77
2022/08/30 02:28:26;;;;;;;7.95;5.90;;;;;;;18.36;63.10;93096.06;2067981;69;20244;-76
2022/08/30 02:30:52;;;;;;;10.13;6.00;;;;;;;18.43;62.37;93092.06;2071409;69;20164;-77
2022/08/30 02:33:18;;;;;;;11.40;6.50;;;;;;;18.34;63.14;93084.59;2071510;69;20577;-76
2022/08/30 02:35:44;;;;;;;8.45;5.43;;;;;;;18.33;62.61;93083.16;2067993;69;20152;-77
2022/08/30 02:38:12;;;;;;;8.82;5.38;;;;;;;18.32;62.84;93083.78;2071473;69;20787;-77
2022/08/30 02:40:38;;;;;;;8.40;5.10;;;;;;;18.17;62.72;93083.22;2071513;69;20554;-77
2022/08/30 02:43:04;;;;;;;6.07;4.75;;;;;;;18.33;62.12;93071.00;2071379;69;20611;-77
2022/08/30 02:45:30;;;;;;;7.95;5.50;;;;;;;18.34;62.02;93078.91;2071654;69;20240;-78
2022/08/30 02:47:55;;;;;;;9.00;5.07;;;;;;;18.42;61.88;93067.81;2071338;69;20148;-77
2022/08/30 02:50:23;;;;;;;10.30;5.10;;;;;;;18.44;61.60;93070.00;2071235;69;20170;-76
2022/08/30 02:52:49;;;;;;;8.27;5.10;;;;;;;18.38;61.91;93067.66;2071263;69;20148;-77
2022/08/30 02:55:15;;;;;;;8.77;5.07;;;;;;;18.15;62.71;93065.34;2071265;69;20147;-78
2022/08/30 02:57:42;;;;;;;8.05;4.82;;;;;;;18.26;62.32;93073.63;2071290;69;20160;-77
2022/08/30 03:00:11;;;;;;;8.90;4.90;;;;;;;18.35;61.62;93068.22;2071215;69;20144;-77
2022/08/30 03:02:37;;;;;;;8.25;4.78;;;;;;;18.27;61.91;93066.53;2071112;69;20199;-76
2022/08/30 03:05:03;;;;;;;11.57;5.22;;;;;;;18.28;61.02;93070.84;2071345;69;20252;-77
2022/08/30 03:07:31;;;;;;;7.72;4.63;;;;;;;18.29;61.31;93072.31;2067878;69;20183;-76
2022/08/30 03:09:57;;;;;;;6.65;4.88;;;;;;;18.11;62.35;93074.47;2071124;69;20175;-77
2022/08/30 03:12:24;;;;;;;8.48;5.07;;;;;;;18.01;62.99;93071.22;2071009;69;20183;-77
2022/08/30 03:14:51;;;;;;;7.85;5.22;;;;;;;18.02;61.55;93076.25;2071124;69;20649;-78
2022/08/30 03:17:16;;;;;;;9.35;5.10;;;;;;;17.94;63.22;93070.25;2067964;69;20132;-77
2022/08/30 03:19:43;;;;;;;7.55;5.22;;;;;;;17.95;63.81;93071.69;2071108;69;20176;-76
2022/08/30 03:22:10;;;;;;;10.00;5.15;;;;;;;17.95;62.84;93071.69;2067790;69;20156;-76
2022/08/30 03:24:36;;;;;;;8.88;5.68;;;;;;;17.94;63.07;93070.25;2071160;69;20137;-77
2022/08/30 03:27:01;;;;;;;14.13;5.68;;;;;;;17.93;63.99;93068.78;2067716;69;20230;-76
2022/08/30 03:29:28;;;;;;;7.47;5.38;;;;;;;18.00;62.80;93059.06;2071152;69;20210;-77
2022/08/30 03:31:55;;;;;;;9.60;5.53;;;;;;;18.02;62.34;93055.59;2071088;69;20223;-76
2022/08/30 03:34:23;;;;;;;6.13;4.63;;;;;;;17.92;63.47;93055.94;2071071;69;20145;-78
2022/08/30 03:36:51;;;;;;;8.65;5.20;;;;;;;17.82;63.69;93054.78;2071352;69;20141;-76
2022/08/30 03:39:17;;;;;;;6.18;5.07;;;;;;;17.75;64.04;93062.34;2071359;69;20522;-77
2022/08/30 03:41:44;;;;;;;7.88;5.63;;;;;;;17.77;63.72;93059.59;2071236;69;20622;-77
2022/08/30 03:44:11;;;;;;;7.57;5.13;;;;;;;17.84;63.39;93067.00;2071579;69;20216;-77
2022/08/30 03:46:37;;;;;;;11.82;5.40;;;;;;;17.88;62.61;93072.84;2071659;69;20144;-77
2022/08/30 03:49:03;;;;;;;10.75;5.47;;;;;;;17.75;63.99;93079.44;2071598;69;20555;-77
2022/08/30 03:51:29;;;;;;;9.93;5.97;;;;;;;17.79;63.53;93073.91;2071621;69;20156;-77
2022/08/30 03:53:55;;;;;;;9.23;5.13;;;;;;;17.60;64.74;93066.72;2071620;69;20218;-76
2022/08/30 03:56:25;;;;;;;10.15;5.25;;;;;;;17.68;63.79;93078.44;2068181;69;20156;-76
2022/08/30 03:58:51;;;;;;;9.80;6.18;;;;;;;17.72;63.08;93075.00;2068401;69;20159;-75
2022/08/30 04:01:17;;;;;;;11.82;7.07;;;;;;;17.63;63.47;93070.38;2071588;69;20160;-76
2022/08/30 04:03:42;;;;;;;8.48;5.97;;;;;;;17.62;63.23;93066.06;2071567;69;20203;-77
2022/08/30 04:06:08;;;;;;;10.60;6.72;;;;;;;17.23;65.60;93070.19;2071647;69;20148;-77
2022/08/30 04:08:34;;;;;;;8.60;5.88;;;;;;;17.46;64.35;93091.75;2071737;69;20163;-77
2022/08/30 04:11:01;;;;;;;10.30;5.57;;;;;;;17.45;64.16;93093.13;2071645;69;20144;-77
2022/08/30 04:13:28;;;;;;;10.52;6.13;;;;;;;17.53;62.83;93102.75;2071280;69;20140;-78
2022/08/30 04:15:54;;;;;;;10.98;6.80;;;;;;;17.61;63.62;93107.31;2071616;69;20160;-78
2022/08/30 04:18:20;;;;;;;12.82;7.35;;;;;;;17.49;64.37;93110.38;2071638;69;20171;-77
2022/08/30 04:20:46;;;;;;;9.18;6.53;;;;;;;17.53;64.16;93104.84;2071623;69;20602;-77
2022/08/30 04:23:12;;;;;;;12.02;7.47;;;;;;;17.51;64.15;93111.19;2071869;69;20148;-77
2022/08/30 04:25:40;;;;;;;11.15;7.05;;;;;;;17.58;63.54;93112.19;2068231;69;20132;-75
2022/08/30 04:28:06;;;;;;;12.02;7.85;;;;;;;17.63;63.38;93110.22;2068112;69;20171;-76
2022/08/30 04:30:33;;;;;;;11.20;7.60;;;;;;;17.57;64.44;93110.72;2071594;69;20696;-76
2022/08/30 04:32:59;;;;;;;12.18;7.60;;;;;;;17.57;64.32;93102.19;2071509;69;20137;-78
2022/08/30 04:35:25;;;;;;;9.75;6.82;;;;;;;17.59;64.48;93105.09;2071472;69;20672;-77
2022/08/30 04:37:51;;;;;;;11.07;7.20;;;;;;;17.54;65.14;93112.00;2071879;69;20245;-77
2022/08/30 04:40:17;;;;;;;12.07;6.10;;;;;;;17.54;64.50;93109.16;2071591;69;20198;-77
2022/08/30 04:42:44;;;;;;;13.80;6.60;;;;;;;17.56;65.09;93109.25;2071739;69;20223;-78
2022/08/30 04:45:13;;;;;;;9.48;6.50;;;;;;;17.61;64.66;93115.84;2071699;69;20148;-77
2022/08/30 04:47:39;;;;;;;10.30;6.40;;;;;;;17.64;64.43;93112.44;2071396;69;20148;-78
2022/08/30 04:50:10;;;;;;;11.43;5.78;;;;;;;17.96;62.25;93123.69;2071635;69;20671;-78
2022/08/30 04:52:36;;;;;;;11.02;6.35;;;;;;;17.68;63.75;93115.44;2071588;69;20222;-77
2022/08/30 04:55:02;;;;;;;9.30;5.47;;;;;;;17.61;63.53;93130.81;2071401;69;20140;-76
2022/08/30 04:57:28;;;;;;;13.32;6.43;;;;;;;17.68;64.27;93141.06;2071358;69;20168;-77
2022/08/30 04:59:54;;;;;;;9.23;6.03;;;;;;;17.54;64.88;93129.81;2071682;69;20141;-76
2022/08/30 05:02:20;;;;;;;12.23;6.60;;;;;;;17.68;64.12;93132.53;2071449;69;20679;-76
2022/08/30 05:07:31;;;;;;;15.05;7.38;;;;;;;17.50;65.05;93141.06;2071721;69;20160;-77
2022/08/30 05:09:57;;;;;;;13.52;6.28;;;;;;;17.85;62.83;93141.78;2071254;69;20179;-77
2022/08/30 05:12:23;;;;;;;16.15;6.40;;;;;;;17.91;62.57;93142.00;2071346;69;20647;-78
2022/08/30 05:14:49;;;;;;;13.25;5.85;;;;;;;17.26;65.59;93145.69;2071258;69;20209;-78
2022/08/30 05:17:14;;;;;;;11.23;6.55;;;;;;;17.53;65.16;93148.28;2071393;69;20597;-77
2022/08/30 05:19:41;;;;;;;11.02;5.95;;;;;;;17.61;64.56;93147.16;2071254;69;20165;-76
2022/08/30 05:22:08;;;;;;;10.85;6.43;;;;;;;17.74;64.93;93155.59;2071210;69;20224;-77
2022/08/30 05:24:34;;;;;;;8.95;5.93;;;;;;;17.78;64.63;93150.06;2071229;69;20211;-77
2022/08/30 05:27:00;;;;;;;8.48;4.97;;;;;;;17.93;63.25;93153.50;2068027;69;20136;-77
2022/08/30 05:29:26;;;;;;;9.02;5.65;;;;;;;18.09;62.18;93156.25;2071871;69;20217;-77
2022/08/30 05:31:52;;;;;;;14.15;6.00;;;;;;;17.93;63.80;93159.91;2071695;69;20235;-77
2022/08/30 05:34:19;;;;;;;11.50;6.28;;;;;;;18.05;62.30;93159.66;2071525;69;20185;-77
2022/08/30 05:36:45;;;;;;;14.90;7.15;;;;;;;17.54;66.21;93160.41;2071360;69;20156;-75
2022/08/30 05:39:11;;;;;;;13.63;6.63;;;;;;;17.94;64.26;93160.66;2071315;69;20176;-78
2022/08/30 05:41:37;;;;;;;7.95;5.43;;;;;;;17.93;65.09;93162.78;2071379;69;20187;-78
2022/08/30 05:44:05;;;;;;;11.23;5.82;;;;;;;18.08;64.02;93166.19;2071437;69;20234;-78
2022/08/30 05:46:34;;;;;;;8.77;6.00;;;;;;;18.00;64.89;93163.75;2071064;69;20172;-76
2022/08/30 05:49:05;;;;;;;9.25;6.00;;;;;;;18.20;63.02;93163.84;2068120;69;20560;-76
2022/08/30 05:51:33;;;;;;;7.07;5.13;;;;;;;18.04;64.14;93167.50;2071281;69;20158;-76
2022/08/30 05:53:59;;;;;;;9.13;5.78;;;;;;;17.69;65.80;93170.28;2071452;69;20164;-77
2022/08/30 05:56:30;;;;;;;9.98;6.28;;;;;;;17.97;64.06;93162.94;2071257;69;20175;-76
2022/08/30 05:58:57;;;;;;;10.88;6.00;;;;;;;18.02;64.00;93156.03;2071306;69;20622;-76
2022/08/30 06:01:30;;;;;;;8.95;5.75;;;;;;;18.04;63.70;93152.50;2071236;69;20175;-76
2022/08/30 06:03:59;;;;;;;14.43;6.22;;;;;;;18.15;63.76;93153.66;2070001;69;20160;-77
2022/08/30 06:06:28;;;;;;;11.23;5.93;;;;;;;18.09;64.20;93145.59;2067627;69;20140;-76
2022/08/30 06:08:55;;;;;;;9.27;5.63;;;;;;;18.04;64.77;93133.31;2065328;69;20217;-77
2022/08/30 06:11:22;;;;;;;7.35;5.80;;;;;;;17.76;66.37;93132.16;2071051;69;20148;-77
2022/08/30 06:13:49;;;;;;;11.50;6.28;;;;;;;17.81;65.53;93145.19;2071431;69;20539;-78
2022/08/30 06:16:16;;;;;;;7.80;5.88;;;;;;;17.94;65.29;93143.56;2071249;69;20160;-77
2022/08/30 06:18:43;;;;;;;14.25;6.40;;;;;;;17.93;65.61;93150.66;2067559;69;20151;-78
2022/08/30 06:21:22;;;;;;;10.70;6.50;;;;;;;17.95;65.33;93151.44;2071443;69;20137;-78
2022/08/30 06:23:48;;;;;;;10.23;6.28;;;;;;;18.11;64.57;93150.66;2071171;69;20233;-78
2022/08/30 06:26:13;;;;;;;12.68;6.75;;;;;;;18.22;63.01;93146.81;2069264;69;20164;-78
2022/08/30 06:28:39;;;;;;;8.95;6.07;;;;;;;18.11;64.14;93150.66;2072850;69;20203;-76
2022/08/30 06:31:07;;;;;;;10.18;5.75;;;;;;;18.24;62.62;93150.50;2068796;69;20248;-76
2022/08/30 06:33:32;;;;;;;11.30;5.97;;;;;;;18.19;63.17;93136.72;2071513;69;20356;-76
2022/08/30 06:36:06;;;;;;;9.63;6.60;;;;;;;18.15;64.80;93147.97;2067847;69;20228;-77
2022/08/30 06:38:33;;;;;;;9.02;5.72;;;;;;;18.33;62.99;93151.53;2071496;69;20620;-77
2022/08/30 06:40:58;;;;;;;11.70;5.95;;;;;;;18.23;65.12;93137.59;2071300;69;20245;-77
2022/08/30 06:43:24;;;;;;;8.93;5.32;;;;;;;18.31;64.28;93130.78;2071269;69;20264;-77
2022/08/30 06:45:50;;;;;;;9.57;6.30;;;;;;;18.21;62.97;93136.81;2071616;69;20156;-78
2022/08/30 06:48:15;;;;;;;9.70;6.00;;;;;;;18.53;64.11;93140.19;2071027;69;20148;-76
2022/08/30 06:50:41;;;;;;;8.40;5.82;;;;;;;18.88;63.80;93138.66;2071101;69;20155;-75
2022/08/30 06:53:08;;;;;;;11.52;6.78;;;;;;;19.17;63.56;93131.88;2071173;69;20152;-77
2022/08/30 06:55:34;;;;;;;16.05;7.40;;;;;;;19.35;64.35;93129.66;2071056;69;20596;-79
2022/08/30 06:58:01;;;;;;;11.70;6.68;;;;;;;19.76;61.18;93133.94;2070996;69;20147;-79
2022/08/30 07:00:27;;;;;;;9.98;6.18;;;;;;;20.11;62.81;93129.34;2064869;69;20207;-76
2022/08/30 07:02:53;;;;;;;11.35;5.60;;;;;;;20.34;62.13;93127.91;2071097;69;20244;-76
2022/08/30 07:05:23;;;;;;;7.43;5.40;;;;;;;20.65;61.33;93121.03;2067660;69;20140;-75
2022/08/30 07:07:53;;;;;;;8.52;5.03;;;;;;;20.98;59.96;93114.88;2068711;69;20168;-75
2022/08/30 07:10:20;;;;;;;10.55;5.20;;;;;;;21.23;58.46;93115.56;2071513;69;20138;-75
2022/08/30 07:12:46;;;;;;;9.50;5.10;;;;;;;21.46;57.69;93114.06;2070975;69;20144;-76
2022/08/30 07:15:12;;;;;;;14.98;5.82;;;;;;;22.49;54.79;93115.94;2071148;69;20252;-77
2022/08/30 07:20:22;;;;;;;8.57;5.35;;;;;;;21.85;54.75;93109.34;2071426;69;20307;-77
2022/08/30 07:22:48;;;;;;;9.98;5.60;;;;;;;21.87;55.34;93113.00;2068070;69;20227;-76
2022/08/30 07:25:15;;;;;;;8.27;5.32;;;;;;;22.21;55.04;93118.13;2071395;69;20158;-80
2022/08/30 07:27:41;;;;;;;10.38;6.07;;;;;;;22.28;54.88;93114.03;2071351;69;20178;-78
2022/08/30 07:30:09;;;;;;;10.02;6.10;;;;;;;21.66;54.79;93114.59;2071222;69;20139;-76
2022/08/30 07:32:37;;;;;;;10.32;5.65;;;;;;;22.23;55.17;93113.19;2071054;69;20504;-77
2022/08/30 07:35:04;;;;;;;10.82;5.00;;;;;;;22.71;54.15;93109.25;2071044;69;20215;-77
2022/08/30 07:37:29;;;;;;;13.38;5.20;;;;;;;22.84;54.87;93113.84;2071213;69;20144;-79
2022/08/30 07:40:00;;;;;;;7.72;5.57;;;;;;;23.08;54.87;93113.66;2071111;69;20238;-76
2022/08/30 07:42:26;;;;;;;11.10;5.05;;;;;;;23.25;52.16;93109.69;2070705;69;20144;-74
2022/08/30 07:44:52;;;;;;;6.00;4.95;;;;;;;23.25;52.23;93101.09;2070986;69;20143;-76
2022/08/30 07:47:17;;;;;;;7.00;5.30;;;;;;;23.37;50.92;93103.47;2071125;69;20155;-75
2022/08/30 07:49:43;;;;;;;8.95;5.18;;;;;;;23.17;50.68;93100.19;2071061;69;20529;-75
2022/08/30 07:52:09;;;;;;;6.38;4.90;;;;;;;23.82;49.01;93098.56;2071062;69;20239;-75
2022/08/30 07:54:35;;;;;;;6.38;5.10;;;;;;;23.90;48.58;93095.84;2070969;69;20231;-76
2022/08/30 07:57:00;;;;;;;9.48;4.70;;;;;;;24.17;48.44;93087.66;2071062;69;20525;-76
2022/08/30 07:59:26;;;;;;;8.15;4.75;;;;;;;24.51;47.26;93093.25;2070904;69;20226;-76
2022/08/30 08:01:52;;;;;;;5.07;4.35;;;;;;;24.59;48.96;93081.84;2071146;69;20265;-77
2022/08/30 08:04:18;;;;;;;5.65;4.60;;;;;;;25.85;45.07;93094.25;2071204;69;20143;-76
2022/08/30 08:06:44;;;;;;;6.20;5.00;;;;;;;25.80;45.33;93090.59;2071177;69;20518;-77
2022/08/30 08:09:09;;;;;;;7.07;4.80;;;;;;;25.26;44.74;93093.59;2067712;69;20164;-77
2022/08/30 08:11:35;;;;;;;5.15;4.50;;;;;;;25.59;45.74;93091.78;2067606;69;20159;-76
2022/08/30 08:14:03;;;;;;;5.43;4.28;;;;;;;25.69;45.54;93088.28;2071193;69;20148;-76
2022/08/30 08:16:31;;;;;;;4.65;4.18;;;;;;;25.95;44.89;93088.59;2071024;69;20599;-75
2022/08/30 08:18:57;;;;;;;4.70;4.22;;;;;;;26.72;43.19;93093.56;2071159;69;20299;-76
2022/08/30 08:21:24;;;;;;;6.07;4.38;;;;;;;26.24;44.42;93088.81;2071140;69;20262;-77
2022/08/30 08:23:50;;;;;;;7.30;4.30;;;;;;;27.20;42.01;93087.34;2067854;69;20136;-77
2022/08/30 08:26:16;;;;;;;8.95;4.60;;;;;;;27.09;41.21;93088.75;2067654;69;20144;-77
2022/08/30 08:28:43;;;;;;;4.60;4.20;;;;;;;26.94;41.85;93079.25;2071069;69;20218;-76
2022/08/30 08:31:20;;;;;;;4.70;4.30;;;;;;;27.13;41.85;93076.47;2071455;69;20144;-77
2022/08/30 08:33:48;;;;;;;4.80;4.10;;;;;;;28.92;38.84;93076.75;2071731;69;20156;-75
2022/08/30 08:36:14;;;;;;;5.63;4.63;;;;;;;28.74;38.87;93071.72;2071607;69;20486;-77
2022/08/30 08:38:40;;;;;;;6.55;3.88;;;;;;;27.97;38.30;93071.69;2071556;69;20140;-75
2022/08/30 08:41:16;;;;;;;5.47;4.05;;;;;;;28.18;41.02;93070.28;2071633;69;20593;-77
2022/08/30 08:43:42;;;;;;;4.45;3.90;;;;;;;28.05;40.91;93065.94;2071625;69;20141;-75
2022/08/30 08:46:47;;;;;;;5.47;4.20;;;;;;;28.29;39.46;93062.31;2071575;69;20184;-76
2022/08/30 08:49:13;;;;;;;8.63;4.13;;;;;;;31.30;33.89;93059.31;2054071;70;20618;-75
2022/08/30 08:54:45;;;;;;;4.30;3.90;;;;;;;29.86;36.67;93059.03;2048428;70;20550;-75
2022/08/30 08:57:11;;;;;;;7.03;4.40;;;;;;;29.31;36.75;93056.38;2053884;70;20245;-76
2022/08/30 08:59:37;;;;;;;5.75;4.05;;;;;;;29.72;36.31;93059.09;2054123;70;20178;-77
2022/08/30 09:02:22;;;;;;;4.35;3.90;;;;;;;28.50;36.63;93055.09;2054081;70;20293;-76
2022/08/30 09:04:51;;;;;;;6.03;3.97;;;;;;;29.58;36.43;93049.03;2054026;70;20192;-76
2022/08/30 09:07:22;;;;;;;4.75;4.10;;;;;;;28.88;37.21;93039.81;2054044;70;20165;-77
2022/08/30 09:09:47;;;;;;;4.28;3.70;;;;;;;30.22;35.67;93043.56;2054091;70;20154;-76
2022/08/30 09:12:13;;;;;;;4.25;3.80;;;;;;;29.51;35.16;93038.19;2053846;70;20184;-76
2022/08/30 09:14:43;;;;;;;5.80;3.90;;;;;;;29.57;35.31;93038.16;2053885;70;20134;-76
2022/08/30 09:17:11;;;;;;;5.20;4.10;;;;;;;30.68;34.78;93041.00;2053972;69;20225;-76
2022/08/30 09:19:58;;;;;;;4.18;3.70;;;;;;;30.88;35.14;93032.09;2053990;70;20581;-77
2022/08/30 09:22:37;;;;;;;4.40;3.80;;;;;;;31.24;32.93;93033.16;2054097;69;20353;-76
2022/08/30 09:25:02;;;;;;;5.90;3.85;;;;;;;31.76;33.05;93022.34;2061022;69;20156;-76
2022/08/30 09:27:33;;;;;;;5.70;3.90;;;;;;;29.86;32.62;93021.31;2064637;69;20232;-76
2022/08/30 09:30:34;;;;;;;3.90;3.60;;;;;;;31.80;32.75;93022.31;2064872;69;20161;-77
2022/08/30 09:33:03;;;;;;;4.38;3.63;;;;;;;32.20;31.65;93018.06;2063183;69;20157;-77
2022/08/30 09:35:36;;;;;;;5.75;3.65;;;;;;;30.71;32.89;93005.41;2064862;69;20157;-77
2022/08/30 09:38:17;;;;;;;4.03;3.63;;;;;;;32.08;31.09;93004.44;2064946;69;20608;-76
2022/08/30 09:40:52;;;;;;;3.75;3.38;;;;;;;32.14;31.43;93000.69;2065104;69;20320;-76
2022/08/30 09:43:20;;;;;;;3.80;3.40;;;;;;;32.84;30.80;92998.06;2066051;69;20152;-77
2022/08/30 09:46:03;;;;;;;4.88;3.78;;;;;;;30.86;32.10;92992.16;2066338;69;20149;-75
2022/08/30 09:48:36;;;;;;;4.75;3.60;;;;;;;32.95;31.02;92983.34;2066275;69;20160;-77
2022/08/30 09:51:30;;;;;;;4.60;3.50;;;;;;;32.30;30.47;92988.78;2066681;69;20152;-76
2022/08/30 09:54:18;;;;;;;4.60;3.42;;;;;;;31.24;31.06;92972.81;2061321;69;20211;-75
2022/08/30 09:56:59;;;;;;;4.88;3.63;;;;;;;33.26;31.54;92980.50;2062479;69;20157;-77
2022/08/30 10:00:01;;;;;;;7.03;4.10;;;;;;;31.78;32.09;92967.03;2066129;69;20236;-78
2022/08/30 10:02:51;;;;;;;4.32;3.92;;;;;;;32.02;31.59;92963.03;2064370;69;20215;-77
2022/08/30 10:05:36;;;;;;;4.15;3.72;;;;;;;31.57;32.75;92964.41;2061098;69;20149;-77
2022/08/30 10:08:11;;;;;;;5.63;3.83;;;;;;;31.40;33.41;92959.56;2067014;69;20260;-76
2022/08/30 10:10:48;;;;;;;4.63;3.90;;;;;;;32.40;31.33;92958.09;2065313;69;20153;-75
2022/08/30 10:13:43;;;;;;;8.43;4.18;;;;;;;32.97;31.34;92951.94;2065413;69;20185;-75
2022/08/30 10:16:28;;;;;;;6.03;3.80;;;;;;;33.64;29.92;92950.53;2069933;69;20219;-75
2022/08/30 10:19:13;;;;;;;4.60;3.47;;;;;;;34.61;29.91;92943.16;2068966;69;20247;-74
2022/08/30 10:21:51;;;;;;;5.13;4.03;;;;;;;34.73;29.51;92939.16;2071762;69;20543;-74
2022/08/30 10:24:23;;;;;;;4.07;3.63;;;;;;;34.71;29.82;92937.03;2072637;69;20209;-77
2022/08/30 10:26:57;;;;;;;4.90;3.92;;;;;;;34.64;29.24;92935.75;2072272;69;20215;-76
2022/08/30 10:29:45;;;;;;;5.88;3.70;;;;;;;33.95;28.97;92925.75;2070484;69;20155;-76
2022/08/30 10:32:15;;;;;;;3.55;3.25;;;;;;;34.56;27.79;92919.16;2069197;69;20197;-75
2022/08/30 10:34:48;;;;;;;4.00;3.60;;;;;;;35.19;27.95;92919.66;2073959;69;20246;-75
2022/08/30 10:37:28;;;;;;;4.35;3.60;;;;;;;33.61;29.30;92914.13;2072893;69;20175;-75
2022/08/30 10:41:11;;;;;;;4.47;3.80;;;;;;;33.48;29.62;92912.25;2071371;69;20498;-76
2022/08/30 10:42:50;;;;;;;3.90;3.35;;;;;;;33.79;29.42;92909.34;2070599;69;20217;-76
2022/08/30 10:45:17;;;;;;;3.67;2.97;;;;;;;35.98;26.67;92907.06;2068163;69;20578;-76
2022/08/30 10:48:04;;;;;;;3.72;3.00;;;;;;;37.28;25.36;92908.44;2071646;69;20613;-76
2022/08/30 10:50:45;;;;;;;3.35;3.00;;;;;;;34.92;26.96;92896.25;2072307;69;20148;-75
2022/08/30 10:53:20;;;;;;;3.30;3.00;;;;;;;36.15;26.15;92902.06;2073743;69;20663;-76
2022/08/30 10:56:11;;;;;;;4.00;3.45;;;;;;;35.83;25.39;92907.47;2071652;69;20176;-75
2022/08/30 10:58:38;;;;;;;3.95;3.10;;;;;;;37.13;24.96;92899.44;2070025;69;20140;-75
2022/08/30 11:01:06;;;;;;;3.22;2.92;;;;;;;39.41;22.38;92905.69;2072059;69;20187;-76
2022/08/30 11:03:59;;;;;;;3.88;3.00;;;;;;;40.68;20.54;92909.91;2071112;69;20183;-74
2022/08/30 11:06:52;;;;;;;8.98;3.25;;;;;;;41.59;20.47;92904.44;2071328;69;20151;-76
2022/08/30 11:09:27;;;;;;;4.32;3.03;;;;;;;43.42;18.98;92912.50;2071800;69;20160;-76
2022/08/30 11:11:59;;;;;;;2.90;2.58;;;;;;;44.92;18.51;92902.16;2071688;69;20301;-76
2022/08/30 11:14:25;;;;;;;3.67;2.72;;;;;;;47.12;16.78;92910.22;2071882;69;20148;-76
2022/08/30 11:16:55;;;;;;;5.00;2.42;;;;;;;46.37;16.61;92906.88;2068590;69;20514;-76
2022/08/30 11:19:25;;;;;;;4.10;2.47;;;;;;;45.05;16.64;92908.69;2071798;69;20471;-76
2022/08/30 11:22:07;;;;;;;3.85;2.42;;;;;;;46.83;16.31;92902.72;2071175;69;20544;-76
2022/08/30 11:24:52;;;;;;;;;;;;;;;48.64;14.81;92904.97;2071983;69;20651;-75
2022/08/30 11:27:58;;;;;;;3.30;2.38;;;;;;;48.56;15.46;92903.34;2067071;69;20056;-76
2022/08/30 11:30:27;;;;;;;5.07;2.42;;;;;;;50.37;14.05;92897.72;2054257;69;20173;-76
2022/08/30 11:33:09;;;;;;;4.28;2.30;;;;;;;48.19;14.40;92895.97;2053343;69;20275;-76
2022/08/30 11:35:51;;;;;;;2.95;2.40;;;;;;;50.47;14.36;92894.50;2053986;69;20295;-76
2022/08/30 11:38:24;;;;;;;2.45;2.20;;;;;;;50.08;13.07;92891.25;2050641;70;20238;-76
2022/08/30 11:41:11;;;;;;;3.60;2.20;;;;;;;49.50;13.06;92877.59;2053692;70;20498;-76
2022/08/30 11:43:38;;;;;;;4.28;2.03;;;;;;;49.07;13.36;92874.50;2055262;69;20768;-76
2022/08/30 11:46:25;;;;;;;3.15;2.05;;;;;;;46.79;15.25;92872.53;2055142;69;20181;-76
2022/08/30 11:49:09;;;;;;;3.67;1.80;;;;;;;49.43;14.67;92870.69;2055186;69;20248;-77
2022/08/30 11:51:59;;;;;;;3.28;2.30;;;;;;;48.86;15.55;92863.59;2055163;69;20702;-75
2022/08/30 11:54:52;;;;;;;2.60;2.10;;;;;;;48.79;14.56;92856.72;2054144;69;20157;-76